PWSweather.com
Personal Weather Stations
Station Observations
IVENETOL9
Brugine, BrugineIT 35020

BrugineBrugineIT 35020

Lat: 45.2975, Lon: 11.9962777

Elevation: 19

Station Type: Davis Vantage Pro2 Plus

http://www.meteobrugine.it/

Latest ConditionsUpdated 5:45:44 AM GMT+01:01 Saturday, Nov 29, 2014
Currently Today's Max Today's Min Today's Average
Temperature 54.2°F12.3°C 54.3°F12.4°C 53.6°F12.0°C 54.1°F12.3°C
Dew Point 53.9°F12.2°C 54.2°F12.3°C 53.3°F11.8°C 53.9°F12.2°C
Winds 0.2 mph NW0.3 kmh NW 0.2 mph NNE0.3 kmh NNE - 0.0 mph 0.0 kmh
Wind Gusts 2.0 mph3.2 kmh 2.0 mph3.2 kmh - -
Humidity 99% 100% 99% 99%
Pressure 29.96 in1014.6 mb 29.97 in1014.9 mb 29.95 in1014.2 mb -
Hour Temp Dew Point Humidity Winds Wind Gusts Pressure Precip Precip Rate Daily Precip Total
05:45 AM 54.2°F12.3°C 53.9°F12.2°C 99% 0.2 mph NW0.3 kmh NW 2.0 mph3.2 kmh 29.96 in1014.6 mb 0.00 in0.0 mm 0.00 in/hr0.0 mm/hr 0.00 in0.0 mm
05:30 AM 54.2°F12.3°C 53.9°F12.2°C 99% Calm Calm -- 29.96 in1014.6 mb 0.00 in0.0 mm 0.00 in/hr0.0 mm/hr 0.00 in0.0 mm
05:15 AM 54.2°F12.3°C 54.2°F12.3°C 100% Calm Calm -- 29.96 in1014.6 mb 0.00 in0.0 mm 0.00 in/hr0.0 mm/hr 0.00 in0.0 mm
05:00 AM 54.2°F12.3°C 54.2°F12.3°C 100% Calm Calm -- 29.96 in1014.6 mb 0.00 in0.0 mm 0.00 in/hr0.0 mm/hr 0.00 in0.0 mm
04:45 AM 54.2°F12.3°C 54.2°F12.3°C 100% Calm Calm -- 29.96 in1014.6 mb 0.00 in0.0 mm 0.00 in/hr0.0 mm/hr 0.00 in0.0 mm
04:30 AM 54.1°F12.3°C 54.1°F12.3°C 100% Calm Calm -- 29.96 in1014.6 mb 0.00 in0.0 mm 0.00 in/hr0.0 mm/hr 0.00 in0.0 mm
04:15 AM 54.1°F12.3°C 54.1°F12.3°C 100% Calm Calm -- 29.96 in1014.6 mb 0.00 in0.0 mm 0.00 in/hr0.0 mm/hr 0.00 in0.0 mm
04:00 AM 54.1°F12.3°C 53.8°F12.1°C 99% 0.2 mph NW0.3 kmh NW 1.0 mph1.6 kmh 29.95 in1014.2 mb 0.00 in0.0 mm 0.00 in/hr0.0 mm/hr 0.00 in0.0 mm
03:45 AM 54.0°F12.2°C 53.7°F12.1°C 99% Calm Calm -- 29.96 in1014.6 mb 0.00 in0.0 mm 0.00 in/hr0.0 mm/hr 0.00 in0.0 mm
03:30 AM 54.0°F12.2°C 53.7°F12.1°C 99% Calm Calm -- 29.96 in1014.6 mb 0.00 in0.0 mm 0.00 in/hr0.0 mm/hr 0.00 in0.0 mm
03:15 AM 54.0°F12.2°C 53.7°F12.1°C 99% Calm Calm -- 29.96 in1014.6 mb 0.00 in0.0 mm 0.00 in/hr0.0 mm/hr 0.00 in0.0 mm
03:00 AM 54.0°F12.2°C 53.7°F12.1°C 99% Calm Calm -- 29.96 in1014.6 mb 0.00 in0.0 mm 0.00 in/hr0.0 mm/hr 0.00 in0.0 mm
02:45 AM 54.1°F12.3°C 53.8°F12.1°C 99% Calm Calm -- 29.97 in1014.9 mb 0.00 in0.0 mm 0.00 in/hr0.0 mm/hr 0.00 in0.0 mm
02:30 AM 54.1°F12.3°C 53.8°F12.1°C 99% 0.1 mph NE0.2 kmh NE -- 29.97 in1014.9 mb 0.00 in0.0 mm 0.00 in/hr0.0 mm/hr 0.00 in0.0 mm
02:15 AM 54.2°F12.3°C 53.9°F12.2°C 99% Calm Calm -- 29.97 in1014.9 mb 0.00 in0.0 mm 0.00 in/hr0.0 mm/hr 0.00 in0.0 mm
02:00 AM 54.3°F12.4°C 54.0°F12.2°C 99% Calm Calm -- 29.97 in1014.9 mb 0.00 in0.0 mm 0.00 in/hr0.0 mm/hr 0.00 in0.0 mm
01:45 AM 54.3°F12.4°C 54.0°F12.2°C 99% 0.1 mph NE0.2 kmh NE 1.0 mph1.6 kmh 29.97 in1014.9 mb 0.00 in0.0 mm 0.00 in/hr0.0 mm/hr 0.00 in0.0 mm
01:30 AM 54.3°F12.4°C 54.0°F12.2°C 99% Calm Calm -- 29.96 in1014.6 mb 0.00 in0.0 mm 0.00 in/hr0.0 mm/hr 0.00 in0.0 mm
01:15 AM 54.2°F12.3°C 53.9°F12.2°C 99% Calm Calm -- 29.96 in1014.6 mb 0.00 in0.0 mm 0.00 in/hr0.0 mm/hr 0.00 in0.0 mm
01:00 AM 54.1°F12.3°C 53.8°F12.1°C 99% Calm Calm 1.0 mph1.6 kmh 29.96 in1014.6 mb 0.00 in0.0 mm 0.00 in/hr0.0 mm/hr 0.00 in0.0 mm
12:45 AM 54.0°F12.2°C 53.7°F12.1°C 99% 0.2 mph NE0.3 kmh NE 2.0 mph3.2 kmh 29.97 in1014.9 mb 0.00 in0.0 mm 0.00 in/hr0.0 mm/hr 0.00 in0.0 mm
12:30 AM 53.9°F12.2°C 53.6°F12.0°C 99% Calm Calm -- 29.97 in1014.9 mb 0.00 in0.0 mm 0.00 in/hr0.0 mm/hr 0.00 in0.0 mm
12:15 AM 53.7°F12.1°C 53.4°F11.9°C 99% Calm Calm -- 29.97 in1014.9 mb 0.00 in0.0 mm 0.00 in/hr0.0 mm/hr 0.00 in0.0 mm
12:00 AM 53.6°F12.0°C 53.3°F11.8°C 99% 0.2 mph NNE0.3 kmh NNE 1.0 mph1.6 kmh 29.97 in1014.9 mb 0.00 in0.0 mm 0.00 in/hr0.0 mm/hr 0.00 in0.0 mm